METAR stanice u blizini

 

LYBE - Beograd / Surčin, Srbija
Ažurirano: 23/10/2019 03:30
Mist, Delimično oblačno
Mist, Delimično oblačno
 Pravac vetra calm
Vetar: Tišina
Temperatura: 12°C
Tačka rose: 9°C
Vlažnost: 82%
Pritisak: 1021 hPa
Pregled: Mist
Oblaci: Partly Cloudy
Vidljivost: 5 km
2019/10/23 01:30 LYBE 230130Z 00000KT 5000 BR NSC 12/09 Q1021 NOSIG
LYBT - Beograd / Batajnica, Srbija
Ažurirano: 23/10/2019 03:30
Mist, Delimično oblačno
Mist, Delimično oblačno
 Pravac vetra calm
Vetar: Tišina
Temperatura: 8°C
Tačka rose: 8°C
Vlažnost: 100%
Pritisak: 1021 hPa
Pregled: Mist
Oblaci: Partly Cloudy
Vidljivost: 2 km
2019/10/23 01:30 LYBT 230130Z 00000KT 2000 BR NSC 08/08 Q1021 NOSIG
LYVR - Vršac, Srbija
Ažurirano: 22/10/2019 18:00
NOT Current
Vedro
Vedro
 Pravac vetra ISI
Vetar: ISI 6 km/h
Temperatura: 22°C
Tačka rose: 8°C
Vlažnost: 41%
Pritisak: 1022 hPa
Pregled: Vedro
Vidljivost: greater than 10 km
2019/10/22 16:00 LYVR 221600Z 07003KT CAVOK 22/08 Q1022 NOSIG
 
LYKV - Lađevci, Srbija
Ažurirano: 23/10/2019 03:30
Vedro
Vedro
 Pravac vetra SSZ
Vetar: SSZ 2 km/h
Temperatura: 5°C
Tačka rose: 5°C
Vlažnost: 100%
Pritisak: 1023 hPa
Pregled: Vedro
Vidljivost: greater than 10 km
2019/10/23 01:30 LYKV 230130Z 33001KT CAVOK 05/05 Q1023 NOSIG
LYNI - Niš, Srbija
Ažurirano: 23/10/2019 03:30
Vedro
Vedro
 Pravac vetra varies
Vetar: varies 4 km/h
Temperatura: 9°C
Tačka rose: 7°C
Vlažnost: 87%
Pritisak: 1023 hPa
Pregled: Vedro
Vidljivost: greater than 10 km
2019/10/23 01:30 LYNI 230130Z VRB02KT CAVOK 09/07 Q1023 NOSIG
BKPR - Priština, Srbija
Ažurirano: 23/10/2019 04:00
Vedro
Vedro
 Pravac vetra calm
Vetar: Tišina
Temperatura: 6°C
Tačka rose: 2°C
Vlažnost: 76%
Pritisak: 1024 hPa
Pregled: Vedro
Vidljivost: greater than 10 km
2019/10/23 02:00 BKPR 230200Z 00000KT CAVOK 06/02 Q1024 NOSIG
 
LHPP - Pecs / Pogany, Hungary
Ažurirano: 22/10/2019 18:45
NOT Current
Vedro
Vedro
 Pravac vetra IJI
Vetar: IJI 4 km/h
Temperatura: 20°C
Tačka rose: 13°C
Vlažnost: 64%
Pritisak: 1022 hPa
Pregled: Vedro
Vidljivost: greater than 10 km
2019/10/22 16:45 LHPP 221645Z 11002KT CAVOK 20/13 Q1022
LHUD - Szeged, Hungary
Ažurirano: 04/07/2019 01:45
NOT Current
Vedro
Vedro
 Pravac vetra S
Vetar: S 7 km/h
Temperatura: 18°C
Tačka rose: 13°C
Vlažnost: 73%
Pritisak: 1019 hPa
Pregled: Vedro
Vidljivost: greater than 10 km
2019/07/03 23:45 LHUD 032345Z 35004KT CAVOK 18/13 Q1019
LRTR - Timisoara, Romania
Ažurirano: 23/10/2019 03:30
Vedro
Vedro
 Pravac vetra IJI
Vetar: IJI 9 km/h
Temperatura: 10°C
Osećaj hladnoće: 9°C
Tačka rose: 7°C
Vlažnost: 82%
Pritisak: 1022 hPa
Pregled: Vedro
Vidljivost: greater than 10 km
2019/10/23 01:30 LRTR 230130Z 12005KT CAVOK 10/07 Q1022 NOSIG
 
LRCV - Craiova, Romania
Ažurirano: 23/10/2019 03:30
Partly Cloudy
Partly Cloudy
 Pravac vetra SI
Vetar: SI 7 km/h
Temperatura: 10°C
Osećaj hladnoće: 9°C
Tačka rose: 8°C
Vlažnost: 88%
Pritisak: 1023 hPa
Oblaci: Partly Cloudy
Vidljivost: 7 km
2019/10/23 01:30 LRCV 230130Z 04004KT 7000 NSC 10/08 Q1023
LBSF - Sofia, Bulgaria
Ažurirano: 23/10/2019 03:30
Vedro
Vedro
 Pravac vetra Z
Vetar: Z 4 km/h
Temperatura: 8°C
Tačka rose: 6°C
Vlažnost: 87%
Pritisak: 1025 hPa
Pregled: Vedro
Vidljivost: greater than 10 km
2019/10/23 01:30 LBSF 230130Z 27002KT CAVOK 08/06 Q1025 NOSIG
LWSK - Skoplje, Makedonija
Ažurirano: 23/10/2019 04:00
Vedro
Vedro
 Pravac vetra calm
Vetar: Tišina
Temperatura: 7°C
Tačka rose: 5°C
Vlažnost: 87%
Pritisak: 1024 hPa
Pregled: Vedro
Vidljivost: greater than 10 km
2019/10/23 02:00 LWSK 230200Z 00000KT CAVOK 07/05 Q1024 NOSIG
 
LYPG - Podgorica, Crna Gora
Ažurirano: 23/10/2019 03:30
Vedro
Vedro
 Pravac vetra S
Vetar: S 4 km/h
Temperatura: 12°C
Tačka rose: 9°C
Vlažnost: 82%
Pritisak: 1021 hPa
Pregled: Vedro
Vidljivost: greater than 10 km
2019/10/23 01:30 LYPG 230130Z 35002KT CAVOK 12/09 Q1021 NOSIG
LQSA - Sarajevo, Bosna i Hercegovina
Ažurirano: 23/10/2019 03:00
Vedro
Vedro
 Pravac vetra calm
Vetar: Tišina
Temperatura: 4°C
Tačka rose: 4°C
Vlažnost: 100%
Pritisak: 1024 hPa
Pregled: Vedro
Vidljivost: greater than 10 km
2019/10/23 01:00 LQSA 230100Z 00000KT CAVOK 04/04 Q1024
LDOS - Osijek, Hrvatksa
Ažurirano: 23/10/2019 03:30
Vedro
Vedro
 Pravac vetra SI
Vetar: SI 6 km/h
Temperatura: 10°C
Tačka rose: 9°C
Vlažnost: 94%
Pritisak: 1021 hPa
Pregled: Vedro
Vidljivost: greater than 10 km
2019/10/23 01:30 LDOS 230130Z 05003KT CAVOK 10/09 Q1021